Time;durP1;ratioP1;P1;durP2;ratioP2;P2;SDS_P1;SDS_P2;PMS_P1;PMS_P2;Temp;Humidity;BMP_temperature;BMP_pressure;BME280_temperature;BME280_humidity;BME280_pressure;Samples;Min_cycle;Max_cycle;Signal;HPM_P1;HPM_P2
2023/03/13 00:02:58;;;;;;;2.17;0.98;;;;;;;;;;10509762;28;20044;-81
2023/03/13 00:08:08;;;;;;;2.92;0.75;;;;;;;;;;10490061;28;20032;-80
2023/03/13 00:13:13;;;;;;;1.25;0.70;;;;;;;;;;10492912;28;20090;-80
2023/03/13 00:18:19;;;;;;;2.13;1.00;;;;;;;;;;10472379;28;20055;-81
2023/03/13 00:23:25;;;;;;;0.65;0.43;;;;;;;;;;10487706;28;20052;-81
2023/03/13 00:28:47;;;;;;;2.15;0.70;;;;;;;;;;10500328;28;20401;-80
2023/03/13 00:33:59;;;;;;;1.98;1.00;;;;;;;;;;10501273;28;20046;-80
2023/03/13 00:39:20;;;;;;;1.85;0.57;;;;;;;;;;10488417;28;20044;-80
2023/03/13 00:44:43;;;;;;;2.72;0.85;;;;;;;;;;10500643;28;20617;-82
2023/03/13 00:55:18;;;;;;;1.42;0.88;;;;;;;;;;10492230;28;20040;-79
2023/03/13 01:00:37;;;;;;;1.25;0.88;;;;;;;;;;10482567;28;20059;-79
2023/03/13 01:05:58;;;;;;;2.08;0.43;;;;;;;;;;10483599;28;20328;-81
2023/03/13 01:11:05;;;;;;;3.20;0.73;;;;;;;;;;10494861;28;20084;-80
2023/03/13 01:16:20;;;;;;;0.30;0.30;;;;;;;;;;10488894;28;20413;-81
2023/03/13 01:21:30;;;;;;;1.48;0.90;;;;;;;;;;10473154;28;20534;-81
2023/03/13 01:26:38;;;;;;;1.25;0.70;;;;;;;;;;10486490;28;20391;-81
2023/03/13 01:42:49;;;;;;;0.93;0.40;;;;;;;;;;10484104;28;20043;-78
2023/03/13 01:47:55;;;;;;;0.28;0.20;;;;;;;;;;10482661;28;20052;-78
2023/03/13 01:53:04;;;;;;;1.38;0.52;;;;;;;;;;10477905;28;20040;-80
2023/03/13 01:58:12;;;;;;;1.95;0.40;;;;;;;;;;10495076;28;20476;-79
2023/03/13 02:03:32;;;;;;;1.73;0.88;;;;;;;;;;10482493;28;20425;-78
2023/03/13 02:08:41;;;;;;;2.10;0.30;;;;;;;;;;10465117;28;20036;-79
2023/03/13 02:13:51;;;;;;;3.58;0.60;;;;;;;;;;10488133;28;20025;-82
2023/03/13 02:19:16;;;;;;;0.47;0.43;;;;;;;;;;10499451;28;20431;-81
2023/03/13 02:24:37;;;;;;;2.33;0.50;;;;;;;;;;10465975;28;20044;-81
2023/03/13 02:30:15;;;;;;;1.85;0.68;;;;;;;;;;10485902;28;20041;-80
2023/03/13 02:35:52;;;;;;;1.13;0.50;;;;;;;;;;10482511;28;20035;-79
2023/03/13 02:41:03;;;;;;;2.45;0.93;;;;;;;;;;10489100;28;20048;-79
2023/03/13 02:46:20;;;;;;;1.08;0.63;;;;;;;;;;10479050;28;20494;-81
2023/03/13 02:51:37;;;;;;;1.40;0.50;;;;;;;;;;10464656;28;20072;-79
2023/03/13 02:56:44;;;;;;;2.20;0.40;;;;;;;;;;10480233;28;20028;-80
2023/03/13 03:01:52;;;;;;;1.23;0.55;;;;;;;;;;10475213;28;20524;-80
2023/03/13 03:07:19;;;;;;;1.45;0.65;;;;;;;;;;10482942;28;20055;-79
2023/03/13 03:12:33;;;;;;;0.47;0.35;;;;;;;;;;10488606;28;20073;-79
2023/03/13 03:17:42;;;;;;;1.75;0.47;;;;;;;;;;10483954;28;20047;-80
2023/03/13 03:22:46;;;;;;;;;;;;;;;;;;10483524;28;20044;-79
2023/03/13 03:38:34;;;;;;;1.40;0.65;;;;;;;;;;10477264;28;20413;-84
2023/03/13 03:43:55;;;;;;;0.73;0.28;;;;;;;;;;10482047;28;20045;-79
2023/03/13 03:49:12;;;;;;;0.50;0.50;;;;;;;;;;10478781;28;20110;-81
2023/03/13 03:54:19;;;;;;;0.38;0.38;;;;;;;;;;10469385;28;20050;-79
2023/03/13 03:59:41;;;;;;;1.50;0.70;;;;;;;;;;10479139;28;20036;-78
2023/03/13 04:04:50;;;;;;;0.50;0.38;;;;;;;;;;10489405;28;20045;-79
2023/03/13 04:10:15;;;;;;;0.73;0.50;;;;;;;;;;10476616;28;20044;-79
2023/03/13 04:15:23;;;;;;;0.40;0.40;;;;;;;;;;10475830;28;20108;-80
2023/03/13 04:20:30;;;;;;;0.45;0.20;;;;;;;;;;10485145;28;20477;-78
2023/03/13 04:25:37;;;;;;;0.73;0.50;;;;;;;;;;10467586;28;20082;-79
2023/03/13 04:31:00;;;;;;;1.08;0.60;;;;;;;;;;10477220;28;20048;-78
2023/03/13 04:36:09;;;;;;;0.80;0.40;;;;;;;;;;10487194;28;20048;-79
2023/03/13 04:41:26;;;;;;;1.27;0.68;;;;;;;;;;10490707;28;20056;-79
2023/03/13 04:46:49;;;;;;;2.22;0.63;;;;;;;;;;10529265;28;20041;-79
2023/03/13 04:52:02;;;;;;;0.55;0.45;;;;;;;;;;10496455;28;20566;-80
2023/03/13 04:57:20;;;;;;;0.55;0.30;;;;;;;;;;10500434;28;20577;-81
2023/03/13 05:02:34;;;;;;;0.95;0.45;;;;;;;;;;10487745;28;20083;-82
2023/03/13 05:07:52;;;;;;;1.65;0.50;;;;;;;;;;10485430;28;20448;-81
2023/03/13 05:19:10;;;;;;;0.40;0.40;;;;;;;;;;10486544;28;20074;-78
2023/03/13 05:29:55;;;;;;;0.30;0.30;;;;;;;;;;10474921;28;20044;-80
2023/03/13 05:35:05;;;;;;;0.95;0.40;;;;;;;;;;10492683;28;20517;-79
2023/03/13 05:40:12;;;;;;;0.60;0.45;;;;;;;;;;10481033;28;20044;-76
2023/03/13 05:45:21;;;;;;;0.28;0.28;;;;;;;;;;10509196;28;20029;-78
2023/03/13 05:50:32;;;;;;;1.38;0.65;;;;;;;;;;10483293;28;20044;-80
2023/03/13 05:55:46;;;;;;;0.32;0.32;;;;;;;;;;10492145;28;20047;-80
2023/03/13 06:01:00;;;;;;;3.85;0.40;;;;;;;;;;10469944;28;20135;-78
2023/03/13 06:06:28;;;;;;;1.92;0.82;;;;;;;;;;10487586;28;20032;-79
2023/03/13 06:11:52;;;;;;;0.82;0.40;;;;;;;;;;10473963;28;20040;-80
2023/03/13 06:22:33;;;;;;;2.75;0.70;;;;;;;;;;10485722;28;20079;-80
2023/03/13 06:27:59;;;;;;;0.85;0.35;;;;;;;;;;10477097;28;20041;-78
2023/03/13 06:33:08;;;;;;;1.13;0.52;;;;;;;;;;10482719;28;20309;-80
2023/03/13 06:38:35;;;;;;;1.58;0.40;;;;;;;;;;10474924;28;20398;-81
2023/03/13 06:43:42;;;;;;;0.68;0.40;;;;;;;;;;10456372;28;20039;-78
2023/03/13 06:48:54;;;;;;;1.77;0.65;;;;;;;;;;10481603;28;20056;-80
2023/03/13 06:59:34;;;;;;;;;;;;;;;;;;10465428;28;20466;-81
2023/03/13 07:04:48;;;;;;;1.13;0.45;;;;;;;;;;10483199;28;19924;-81
2023/03/13 07:10:04;;;;;;;2.70;1.00;;;;;;;;;;10479922;28;20044;-82
2023/03/13 07:15:16;;;;;;;3.20;0.75;;;;;;;;;;10480703;28;20601;-80
2023/03/13 07:20:23;;;;;;;1.48;0.90;;;;;;;;;;10482084;28;20098;-82
2023/03/13 07:25:35;;;;;;;1.70;0.82;;;;;;;;;;10461376;28;20052;-78
2023/03/13 07:30:55;;;;;;;7.57;1.00;;;;;;;;;;10486090;28;20138;-78
2023/03/13 07:36:12;;;;;;;0.47;0.47;;;;;;;;;;10482604;28;20036;-83
2023/03/13 07:41:31;;;;;;;1.25;0.80;;;;;;;;;;10457086;28;20048;-80
2023/03/13 07:47:01;;;;;;;0.85;0.47;;;;;;;;;;10476429;28;20098;-80
2023/03/13 07:52:12;;;;;;;1.00;0.85;;;;;;;;;;10481024;28;20048;-80
2023/03/13 07:57:41;;;;;;;1.75;0.75;;;;;;;;;;10492751;28;20533;-80
2023/03/13 08:09:01;;;;;;;2.88;0.93;;;;;;;;;;10487568;28;20043;-82
2023/03/13 08:14:11;;;;;;;7.20;2.90;;;;;;;;;;10489225;28;20044;-83
2023/03/13 08:24:45;;;;;;;1.85;0.70;;;;;;;;;;10537373;28;20056;-83
2023/03/13 08:29:57;;;;;;;0.85;0.60;;;;;;;;;;10540724;28;20055;-83
2023/03/13 08:45:55;;;;;;;1.70;0.63;;;;;;;;;;10502246;28;20033;-82
2023/03/13 08:51:13;;;;;;;0.95;0.90;;;;;;;;;;10456872;28;20048;-82
2023/03/13 09:07:21;;;;;;;1.10;0.63;;;;;;;;;;10494183;28;20097;-83
2023/03/13 09:12:28;;;;;;;0.88;0.80;;;;;;;;;;10491647;28;20119;-82
2023/03/13 09:17:37;;;;;;;1.38;0.98;;;;;;;;;;10481239;28;20393;-82
2023/03/13 09:22:47;;;;;;;2.08;1.02;;;;;;;;;;10495799;28;20056;-82
2023/03/13 09:28:07;;;;;;;3.95;1.50;;;;;;;;;;10484289;28;20520;-83
2023/03/13 09:33:17;;;;;;;1.48;1.27;;;;;;;;;;10462937;28;20045;-83
2023/03/13 09:38:41;;;;;;;0.63;0.63;;;;;;;;;;10476126;28;20051;-83
2023/03/13 09:43:59;;;;;;;1.80;0.90;;;;;;;;;;10501610;28;20040;-83
2023/03/13 09:49:36;;;;;;;2.28;1.30;;;;;;;;;;10510142;28;20056;-83
2023/03/13 09:55:03;;;;;;;1.67;1.20;;;;;;;;;;10533634;28;20039;-83
2023/03/13 10:00:15;;;;;;;1.45;1.27;;;;;;;;;;10538615;28;20049;-84
2023/03/13 10:05:24;;;;;;;;;;;;;;;;;;10519280;28;20060;-83
2023/03/13 10:10:46;;;;;;;1.02;0.98;;;;;;;;;;10513749;28;19959;-83
2023/03/13 10:15:57;;;;;;;2.10;1.00;;;;;;;;;;10510920;28;20051;-82
2023/03/13 10:21:15;;;;;;;1.30;1.00;;;;;;;;;;10505738;28;20215;-83
2023/03/13 10:26:48;;;;;;;0.60;0.60;;;;;;;;;;10471609;28;20132;-83
2023/03/13 10:32:04;;;;;;;4.57;1.20;;;;;;;;;;10486266;28;20047;-81
2023/03/13 10:37:26;;;;;;;0.60;0.60;;;;;;;;;;10447295;28;20148;-81
2023/03/13 10:42:43;;;;;;;0.52;0.28;;;;;;;;;;10467112;28;20132;-83
2023/03/13 10:48:06;;;;;;;0.40;0.40;;;;;;;;;;10486349;28;20127;-82
2023/03/13 10:53:31;;;;;;;0.60;0.60;;;;;;;;;;10453733;28;20789;-82
2023/03/13 11:04:24;;;;;;;3.00;1.00;;;;;;;;;;10486750;28;20043;-82
2023/03/13 11:09:34;;;;;;;0.65;0.65;;;;;;;;;;10486472;28;20089;-82
2023/03/13 11:20:31;;;;;;;1.05;0.70;;;;;;;;;;10486636;28;20448;-82
2023/03/13 11:25:42;;;;;;;0.80;0.80;;;;;;;;;;10488744;28;20052;-82
2023/03/13 11:31:11;;;;;;;1.02;0.90;;;;;;;;;;10473137;28;20547;-82
2023/03/13 11:36:24;;;;;;;0.90;0.90;;;;;;;;;;10446576;28;20058;-83
2023/03/13 11:41:44;;;;;;;0.90;0.90;;;;;;;;;;10463313;28;20040;-83
2023/03/13 11:46:54;;;;;;;;;;;;;;;;;;10468779;28;20044;-83
2023/03/13 11:52:21;;;;;;;1.30;0.90;;;;;;;;;;10476851;28;19924;-83
2023/03/13 11:57:30;;;;;;;1.00;0.93;;;;;;;;;;10480326;28;20113;-84
2023/03/13 12:02:38;;;;;;;;;;;;;;;;;;10489972;28;20121;-82
2023/03/13 12:07:50;;;;;;;1.00;0.90;;;;;;;;;;10492927;28;19942;-82
2023/03/13 12:13:11;;;;;;;4.13;1.20;;;;;;;;;;10478397;28;20040;-83
2023/03/13 12:18:29;;;;;;;2.42;1.08;;;;;;;;;;10489715;28;20076;-82
2023/03/13 12:23:46;;;;;;;1.48;0.82;;;;;;;;;;10485408;28;20101;-82
2023/03/13 12:29:10;;;;;;;3.47;1.00;;;;;;;;;;10468132;28;20592;-82
2023/03/13 12:34:33;;;;;;;1.58;1.00;;;;;;;;;;10493387;28;20583;-82
2023/03/13 12:39:57;;;;;;;2.58;2.00;;;;;;;;;;10506579;28;20041;-82
2023/03/13 12:45:07;;;;;;;;;;;;;;;;;;10468984;28;20405;-82
2023/03/13 12:56:24;;;;;;;3.22;1.00;;;;;;;;;;10432739;28;20124;-82
2023/03/13 13:01:41;;;;;;;2.22;1.20;;;;;;;;;;10417334;28;20059;-82
2023/03/13 13:07:27;;;;;;;0.70;0.70;;;;;;;;;;10445762;28;20461;-82
2023/03/13 13:12:32;;;;;;;2.35;1.10;;;;;;;;;;10445800;28;20039;-81
2023/03/13 13:18:06;;;;;;;1.35;1.15;;;;;;;;;;10445580;28;20041;-83
2023/03/13 13:23:40;;;;;;;3.10;0.98;;;;;;;;;;10455046;28;20056;-83
2023/03/13 13:28:52;;;;;;;2.40;0.80;;;;;;;;;;10433334;28;20399;-83
2023/03/13 13:33:57;;;;;;;1.92;1.10;;;;;;;;;;10443495;28;20049;-82
2023/03/13 13:39:24;;;;;;;2.63;1.23;;;;;;;;;;10446123;28;20150;-82
2023/03/13 13:44:38;;;;;;;1.48;1.00;;;;;;;;;;10453593;28;20048;-83
2023/03/13 13:49:53;;;;;;;1.35;1.25;;;;;;;;;;10465700;28;20458;-82
2023/03/13 13:55:03;;;;;;;2.05;0.90;;;;;;;;;;10460424;28;20041;-82
2023/03/13 14:00:44;;;;;;;1.30;1.10;;;;;;;;;;10494091;28;20040;-82
2023/03/13 14:06:02;;;;;;;1.33;0.93;;;;;;;;;;10475935;28;20051;-83
2023/03/13 14:11:25;;;;;;;1.10;0.90;;;;;;;;;;10485500;28;20048;-82
2023/03/13 14:16:35;;;;;;;0.90;0.85;;;;;;;;;;10466313;28;20055;-83
2023/03/13 14:21:48;;;;;;;2.05;1.05;;;;;;;;;;10487428;28;20041;-82
2023/03/13 14:26:57;;;;;;;1.98;1.05;;;;;;;;;;10484768;28;20098;-83
2023/03/13 14:32:13;;;;;;;2.43;1.10;;;;;;;;;;10481509;28;20033;-82
2023/03/13 14:37:47;;;;;;;0.70;0.70;;;;;;;;;;10466683;28;20351;-83
2023/03/13 14:42:57;;;;;;;1.23;0.70;;;;;;;;;;10500282;28;20040;-83
2023/03/13 14:48:30;;;;;;;0.98;0.80;;;;;;;;;;10493840;28;20775;-83
2023/03/13 14:53:58;;;;;;;1.48;1.00;;;;;;;;;;10500528;28;20056;-83
2023/03/13 14:59:21;;;;;;;2.65;0.73;;;;;;;;;;10523598;28;20276;-81
2023/03/13 15:05:00;;;;;;;2.45;0.90;;;;;;;;;;10499604;28;20056;-82
2023/03/13 15:10:40;;;;;;;0.52;0.47;;;;;;;;;;10499173;28;20036;-82
2023/03/13 15:16:18;;;;;;;0.60;0.60;;;;;;;;;;10484495;28;20502;-83
2023/03/13 15:21:26;;;;;;;0.52;0.45;;;;;;;;;;10497733;28;20071;-83
2023/03/13 15:26:39;;;;;;;0.32;0.32;;;;;;;;;;10481641;28;20533;-83
2023/03/13 15:31:49;;;;;;;1.38;0.80;;;;;;;;;;10472422;28;20101;-83
2023/03/13 15:37:00;;;;;;;1.98;0.90;;;;;;;;;;10472554;28;20169;-83
2023/03/13 15:42:09;;;;;;;2.63;0.70;;;;;;;;;;10429465;28;20557;-83
2023/03/13 15:47:23;;;;;;;0.90;0.70;;;;;;;;;;10486011;28;20082;-83
2023/03/13 15:58:05;;;;;;;0.57;0.52;;;;;;;;;;10627753;27;20583;-82
2023/03/13 16:03:10;;;;;;;2.85;1.27;;;;;;;;;;10601554;28;20292;-81
2023/03/13 16:08:15;;;;;;;2.58;0.95;;;;;;;;;;10603781;27;20226;-81
2023/03/13 16:13:37;;;;;;;1.67;0.70;;;;;;;;;;10595521;28;20540;-81
2023/03/13 16:18:39;;;;;;;2.45;0.70;;;;;;;;;;10586915;28;20130;-81
2023/03/13 16:23:43;;;;;;;0.60;0.40;;;;;;;;;;10596339;28;20035;-81
2023/03/13 16:28:48;;;;;;;2.42;0.70;;;;;;;;;;10608660;28;20381;-81
2023/03/13 16:33:52;;;;;;;0.73;0.50;;;;;;;;;;10595184;28;20376;-81
2023/03/13 16:38:55;;;;;;;1.17;0.80;;;;;;;;;;10597310;28;20092;-82
2023/03/13 16:44:01;;;;;;;1.23;0.70;;;;;;;;;;10612621;28;20062;-82
2023/03/13 16:49:04;;;;;;;1.90;0.77;;;;;;;;;;10618628;28;20054;-82
2023/03/13 16:54:08;;;;;;;2.45;1.45;;;;;;;;;;10647240;27;20039;-82
2023/03/13 16:59:14;;;;;;;1.13;1.00;;;;;;;;;;10638888;28;20084;-82
2023/03/13 17:04:17;;;;;;;4.65;0.70;;;;;;;;;;10643170;27;20043;-82
2023/03/13 17:09:19;;;;;;;0.85;0.60;;;;;;;;;;10613846;28;20036;-83
2023/03/13 17:14:23;;;;;;;2.73;0.70;;;;;;;;;;10617479;28;20024;-83
2023/03/13 17:19:26;;;;;;;1.13;0.75;;;;;;;;;;10600971;28;20036;-81
2023/03/13 17:24:29;;;;;;;0.80;0.70;;;;;;;;;;10574400;27;20392;-80
2023/03/13 17:29:36;;;;;;;0.73;0.70;;;;;;;;;;10558472;28;20118;-81
2023/03/13 17:34:39;;;;;;;2.83;1.20;;;;;;;;;;10557127;28;20039;-80
2023/03/13 17:39:43;;;;;;;2.55;1.20;;;;;;;;;;10561559;28;20040;-82
2023/03/13 17:44:46;;;;;;;;;;;;;;;;;;10566481;28;20032;-84
2023/03/13 17:49:51;;;;;;;4.45;0.82;;;;;;;;;;10565308;28;19939;-83
2023/03/13 17:54:54;;;;;;;1.38;0.85;;;;;;;;;;10564278;28;20627;-83
2023/03/13 17:59:57;;;;;;;2.90;0.97;;;;;;;;;;10563727;28;20258;-84
2023/03/13 18:05:01;;;;;;;1.47;0.77;;;;;;;;;;10568156;28;20035;-80
2023/03/13 18:10:06;;;;;;;3.42;0.82;;;;;;;;;;10555582;28;20530;-80
2023/03/13 18:15:09;;;;;;;0.88;0.75;;;;;;;;;;10560335;28;20427;-81
2023/03/13 18:20:18;;;;;;;1.95;0.70;;;;;;;;;;10561361;28;20035;-81
2023/03/13 18:25:21;;;;;;;1.13;0.80;;;;;;;;;;10566720;28;20069;-79
2023/03/13 18:30:25;;;;;;;3.83;1.73;;;;;;;;;;10565568;28;20061;-83
2023/03/13 18:35:30;;;;;;;2.17;0.77;;;;;;;;;;10563906;28;20310;-84
2023/03/13 18:40:33;;;;;;;3.15;1.35;;;;;;;;;;10563941;28;20039;-84
2023/03/13 18:45:37;;;;;;;3.17;1.30;;;;;;;;;;10566828;28;20040;-81
2023/03/13 18:50:39;;;;;;;;;;;;;;;;;;10554642;28;20055;-82
2023/03/13 18:55:43;;;;;;;3.22;1.83;;;;;;;;;;10550083;28;20086;-82
2023/03/13 19:00:46;;;;;;;3.72;1.70;;;;;;;;;;10565300;28;20039;-82
2023/03/13 19:05:49;;;;;;;2.33;0.70;;;;;;;;;;10564503;28;20031;-81
2023/03/13 19:10:53;;;;;;;3.90;1.42;;;;;;;;;;10562346;28;20123;-81
2023/03/13 19:15:56;;;;;;;2.17;1.40;;;;;;;;;;10557657;28;20061;-81
2023/03/13 19:20:59;;;;;;;2.60;1.02;;;;;;;;;;10560508;28;20139;-85
2023/03/13 19:26:03;;;;;;;4.70;2.00;;;;;;;;;;10553079;28;20100;-85
2023/03/13 19:31:06;;;;;;;4.72;1.52;;;;;;;;;;10561145;28;20526;-85
2023/03/13 19:36:10;;;;;;;2.13;1.00;;;;;;;;;;10551849;28;20036;-85
2023/03/13 19:41:15;;;;;;;2.80;1.58;;;;;;;;;;10555711;28;20104;-84
2023/03/13 19:46:20;;;;;;;2.90;1.52;;;;;;;;;;10560015;28;20036;-84
2023/03/13 19:51:26;;;;;;;2.15;1.15;;;;;;;;;;10557160;28;20035;-85
2023/03/13 19:56:31;;;;;;;3.75;1.85;;;;;;;;;;10555876;28;20036;-84
2023/03/13 20:01:34;;;;;;;4.32;1.27;;;;;;;;;;10563859;28;20054;-85
2023/03/13 20:06:37;;;;;;;2.10;1.27;;;;;;;;;;10574000;28;20034;-84
2023/03/13 20:11:41;;;;;;;3.63;1.38;;;;;;;;;;10598677;28;20035;-85
2023/03/13 20:16:46;;;;;;;;;;;;;;;;;;10582015;28;20115;-85
2023/03/13 20:21:48;;;;;;;6.45;1.60;;;;;;;;;;10590329;28;19950;-85
2023/03/13 20:26:54;;;;;;;3.25;1.00;;;;;;;;;;10593304;28;20039;-81
2023/03/13 20:31:59;;;;;;;4.25;1.85;;;;;;;;;;10561132;28;20065;-78
2023/03/13 20:37:02;;;;;;;4.38;1.58;;;;;;;;;;10561997;28;20040;-78
2023/03/13 20:42:08;;;;;;;2.60;1.20;;;;;;;;;;10592078;27;20066;-78
2023/03/13 20:47:11;;;;;;;1.50;1.15;;;;;;;;;;10581553;27;20312;-80
2023/03/13 20:52:16;;;;;;;3.72;1.60;;;;;;;;;;10599955;27;20050;-79
2023/03/13 20:57:20;;;;;;;3.43;1.13;;;;;;;;;;10577685;27;20035;-79
2023/03/13 21:02:23;;;;;;;4.05;1.33;;;;;;;;;;10569498;28;20042;-79
2023/03/13 21:07:27;;;;;;;5.95;1.13;;;;;;;;;;10575549;27;20151;-79
2023/03/13 21:12:31;;;;;;;3.15;1.20;;;;;;;;;;10569990;28;20038;-79
2023/03/13 21:17:34;;;;;;;4.32;1.13;;;;;;;;;;10571848;28;20481;-79
2023/03/13 21:22:38;;;;;;;1.83;1.23;;;;;;;;;;10568272;28;20063;-80
2023/03/13 21:27:44;;;;;;;2.00;1.30;;;;;;;;;;10573819;28;20028;-79
2023/03/13 21:32:47;;;;;;;5.13;1.45;;;;;;;;;;10571859;28;20105;-80
2023/03/13 21:37:51;;;;;;;4.10;1.70;;;;;;;;;;10565119;28;20055;-79
2023/03/13 21:42:55;;;;;;;3.60;0.95;;;;;;;;;;10570388;28;20086;-79
2023/03/13 21:48:00;;;;;;;2.88;1.63;;;;;;;;;;10572412;28;20039;-79
2023/03/13 21:53:04;;;;;;;1.27;0.90;;;;;;;;;;10566596;28;20458;-79
2023/03/13 21:58:11;;;;;;;4.32;1.65;;;;;;;;;;10566639;28;20040;-79
2023/03/13 22:03:26;;;;;;;1.52;1.35;;;;;;;;;;10565749;28;20036;-80
2023/03/13 22:08:29;;;;;;;2.83;1.40;;;;;;;;;;10560668;28;20028;-79
2023/03/13 22:13:34;;;;;;;3.25;1.35;;;;;;;;;;10562291;28;20067;-78
2023/03/13 22:18:38;;;;;;;2.67;1.42;;;;;;;;;;10559364;28;20513;-79
2023/03/13 22:23:41;;;;;;;2.25;1.08;;;;;;;;;;10565237;28;20042;-78
2023/03/13 22:28:47;;;;;;;2.30;1.30;;;;;;;;;;10556426;28;20036;-79
2023/03/13 22:33:53;;;;;;;7.57;1.30;;;;;;;;;;10559649;28;20068;-78
2023/03/13 22:38:59;;;;;;;2.78;1.35;;;;;;;;;;10557396;28;20028;-78
2023/03/13 22:44:06;;;;;;;1.27;0.82;;;;;;;;;;10553872;28;20027;-78
2023/03/13 22:49:09;;;;;;;3.63;1.27;;;;;;;;;;10544674;28;20035;-79
2023/03/13 22:54:16;;;;;;;1.38;0.70;;;;;;;;;;10551168;28;20046;-79
2023/03/13 22:59:20;;;;;;;1.45;0.75;;;;;;;;;;10555436;28;20046;-79
2023/03/13 23:04:23;;;;;;;3.35;1.02;;;;;;;;;;10553392;28;20039;-78
2023/03/13 23:09:25;;;;;;;3.17;0.65;;;;;;;;;;10549561;28;20039;-78
2023/03/13 23:14:31;;;;;;;1.05;0.70;;;;;;;;;;10559849;28;20042;-79
2023/03/13 23:19:35;;;;;;;0.75;0.40;;;;;;;;;;10553530;28;20502;-77
2023/03/13 23:24:48;;;;;;;1.25;0.70;;;;;;;;;;10563182;27;20047;-78
2023/03/13 23:29:54;;;;;;;0.57;0.38;;;;;;;;;;10550697;28;20040;-79
2023/03/13 23:34:59;;;;;;;0.10;0.10;;;;;;;;;;10554532;28;20063;-78
2023/03/13 23:40:03;;;;;;;0.75;0.50;;;;;;;;;;10553140;28;20043;-78
2023/03/13 23:45:09;;;;;;;0.20;0.20;;;;;;;;;;10555613;28;20093;-78
2023/03/13 23:50:21;;;;;;;0.50;0.20;;;;;;;;;;10550913;28;20472;-78
2023/03/13 23:55:24;;;;;;;0.73;0.30;;;;;;;;;;10551206;28;20044;-77
